• Join FlightAware (Why Join?)
  • Login
  • US Flag 
07:27AM EDT


 

Airport Tracker/Info


-or-


 

Live Flight TrackerFlight Track Log ✈ UAL4476 ✈ 29-Jan-2014 ✈ KIAH - KMLU

Flight Track Log - Related Links

Times and Time Zones

All times are in EST time to prevent confusion due to time zone crossing. See the UAL4476 flight status page for this flight to view local times or setup timezone preferences in your user account.

Time Position Orientation Groundspeed Altitude Reporting Facility
EST Latitude Longitude Course Direction KTS MPH feet Rate Location/Type
02:34PM 29.9658 -95.3431 36° Northeast 150 173 800  Level Houston Center
02:35PM 29.9722 -95.3206 72° East 173 199 1,900 1,980 Climbing Houston Center
02:36PM 30.0339 -95.3058 12° North 234 269 3,900 1,440 Climbing Houston Center
02:36PM 30.0531 -95.2972 21° North 224 258 4,000 60 Climbing Houston Center
02:37PM 30.2663 -95.1045 33° Northeast  Level FlightAware Approximate
02:37PM 30.0994 -95.2883 North 242 278 4,000  Level Houston Center
02:37PM 30.1189 -95.2800 20° North 242 278 4,000 1,620 Level Houston Center
02:38PM 30.3624 -95.0301 35° Northeast  Level FlightAware Approximate
02:38PM 30.1617 -95.2567 25° Northeast 250 288 5,700  Level Houston Center
02:38PM 30.1778 -95.2408 40° Northeast 246 283 6,600 2,340 Climbing Houston Center
02:39PM 30.4540 -94.9500 North  Level FlightAware Approximate
02:39PM 30.2328 -95.1861 41° Northeast 256 295 9,200  Level Houston Center
02:40PM 30.5503 -94.8803 36° Northeast  Level FlightAware Approximate
02:40PM 30.3097 -95.1050 42° Northeast 320 368 10,400  Level Houston Center
02:41PM 30.3847 -95.0269 42° Northeast 356 410 11,700 1,200 Climbing Houston Center
02:42PM 30.4703 -94.9542 36° Northeast 378 435 12,900 1,500 Climbing Houston Center
02:43PM 30.5614 -94.8850 33° Northeast 390 449 14,900 1,920 Climbing Houston Center
02:44PM 30.6483 -94.8181 34° Northeast 382 440 16,900 1,440 Climbing Houston Center
02:45PM 30.7353 -94.7514 33° Northeast 380 437 17,900 1,020 Climbing Houston Center
02:46PM 30.8236 -94.6369 48° Northeast 400 460 19,100 1,020 Climbing Houston Center
02:47PM 30.8953 -94.5297 52° Northeast 417 480 20,100 960 Climbing Houston Center
02:48PM 30.9681 -94.4192 52° Northeast 428 493 21,100 960 Climbing Houston Center
02:50PM 31.0431 -94.3069 52° Northeast 438 504 22,100 780 Climbing Houston Center
02:51PM 31.1347 -94.1689 52° Northeast 450 518 22,800 420 Climbing Houston Center
02:52PM 31.2144 -94.0492 52° Northeast 465 535 23,000 60 Climbing Houston Center
02:53PM 31.2936 -93.9283 53° Northeast 470 541 23,000  Level Houston Center
02:54PM 31.3728 -93.8083 52° Northeast 470 541 23,000  Level Houston Center
02:55PM 31.4511 -93.6883 53° Northeast 468 539 23,000  Level Houston Center
02:56PM 31.5403 -93.5506 53° Northeast 466 536 23,000  Level Houston Center
02:57PM 31.6192 -93.4308 52° Northeast 465 535 23,000  Level Houston Center
02:58PM 31.6981 -93.3103 52° Northeast 465 535 23,000 -300 Level Houston Center
02:59PM 31.7756 -93.1894 53° Northeast 464 534 22,400 -1,140 Descending Houston Center
03:00PM 31.8547 -93.0692 52° Northeast 454 522 20,700 -1,500 Descending Houston Center
03:01PM 31.9231 -92.9617 53° Northeast 428 493 19,300 -1,380 Descending Houston Center
03:02PM 32.0083 -92.8292 53° Northeast 425 489 17,900 -1,260 Descending Houston Center
03:03PM 32.0778 -92.7200 53° Northeast 416 479 16,700 -1,200 Descending Houston Center
03:04PM 32.1483 -92.6103 53° Northeast 420 483 15,500 -1,320 Descending Houston Center
03:05PM 32.2139 -92.5047 54° Northeast 402 463 14,000 -1,740 Descending Houston Center
03:06PM 32.2719 -92.4122 53° Northeast 360 414 12,000 -1,860 Descending Houston Center
03:07PM 32.3197 -92.3311 55° Northeast 322 371 10,200 -2,340 Descending Houston Center
03:08PM 32.3594 -92.2569 58° Northeast 286 329 7,200 -2,760 Descending Houston Center
03:09PM 32.4028 -92.1703 59° Northeast 267 307 4,500 -1,500 Descending Houston Center
03:10PM 32.4361 -92.1050 59° Northeast 262 302 4,200 -300 Descending Houston Center